»·PEaware :: N87VB KLAX-KSNA

N87VB :: KLAX-KSNA

FLIGHT INFORMATION

Flight Status: Arrived
Operator: Privately registered:
United States
More flights under this callsign
Pilot: Anthony R. (29179)
Aircraft: CESSNA 172 SKYHAWK
(C172)
More flights by this aircraft type
Origin: KLAX Los Angeles Intl
United States
Destination: KSNA John Wayne-Orange Co
United States
More flights between these airports :: More routes between these airports
Route: +SLI8 SLI
File this flight plan on PilotEdge
Remarks:
Altitude:
(Current/Filed)
4,000ft
Speed:
(Current/Filed)
120kts
Departed: 21-May-20 11:31 AM
Arrived: 21-May-20 12:29 PM
Distance/Time
Traveled:
31nm/0:58
Distance/Time
To Go:
Arrived

Flight Plot

Page will automatically refresh every two minutes.


Map Options




Map Legend


Flown Route
Filed Route
Departure Airport
Arrival Airport
Navaid (VOR, NDB)
Fix

Horizontal Profiles

Position Reports

Time Latitude Longitude Heading Altitude Ground
Speed
21-May-20 10:58 33.932658 -118.399141 83 111ft 0kts
21-May-20 10:59 33.932658 -118.399141 83 111ft 0kts
21-May-20 11:00 33.932658 -118.399141 83 111ft 0kts
21-May-20 11:01 33.932658 -118.399141 83 111ft 0kts
21-May-20 11:02 33.932658 -118.399141 83 111ft 0kts
21-May-20 11:03 33.932658 -118.399141 83 111ft 0kts
21-May-20 11:04 33.932658 -118.399141 83 111ft 0kts
21-May-20 11:05 33.932658 -118.399141 83 111ft 0kts
21-May-20 11:06 33.932658 -118.399141 83 111ft 0kts
21-May-20 11:07 33.932658 -118.399141 83 111ft 0kts
21-May-20 11:08 33.932658 -118.399141 83 111ft 0kts
21-May-20 11:09 33.932658 -118.399141 83 111ft 0kts
21-May-20 11:10 33.932658 -118.399141 83 111ft 0kts
21-May-20 11:11 33.932658 -118.399141 83 111ft 0kts
21-May-20 11:12 33.932658 -118.399141 83 111ft 0kts
21-May-20 11:13 33.932658 -118.399141 83 111ft 0kts
21-May-20 11:14 33.932658 -118.399141 83 111ft 0kts
21-May-20 11:15 33.932658 -118.399141 83 111ft 0kts
21-May-20 11:16 33.932691 -118.399068 38 111ft 3kts
21-May-20 11:17 33.933018 -118.398955 355 110ft 0kts
21-May-20 11:18 33.933018 -118.398955 355 110ft 0kts
21-May-20 11:19 33.933018 -118.398955 355 110ft 0kts
21-May-20 11:20 33.933516 -118.398638 66 109ft 9kts
21-May-20 11:21 33.934900 -118.394948 81 105ft 16kts
21-May-20 11:22 33.935370 -118.390623 80 102ft 17kts
21-May-20 11:23 33.935614 -118.387848 84 99ft 18kts
21-May-20 11:24 33.936385 -118.382672 332 96ft 0kts
21-May-20 11:25 33.936385 -118.382672 332 96ft 0kts
21-May-20 11:26 33.936385 -118.382672 332 96ft 0kts
21-May-20 11:27 33.936385 -118.382672 332 96ft 0kts
21-May-20 11:28 33.936385 -118.382672 332 96ft 0kts
21-May-20 11:29 33.937412 -118.383445 240 96ft 11kts
21-May-20 11:30 33.935504 -118.400013 263 423ft 56kts
21-May-20 11:31 33.923827 -118.411679 212 888ft 53kts
21-May-20 11:36 33.932658 -118.399141 83 111ft 0kts
21-May-20 11:37 33.932658 -118.399141 83 111ft 0kts
21-May-20 11:38 33.932658 -118.399141 83 111ft 0kts
21-May-20 11:39 33.932658 -118.399141 83 111ft 0kts
21-May-20 11:40 33.932658 -118.399141 83 111ft 0kts
21-May-20 11:41 33.933198 -118.398526 10 109ft 0kts
21-May-20 11:42 33.934247 -118.398245 1 109ft 15kts
21-May-20 11:43 33.935416 -118.389839 84 101ft 32kts
21-May-20 11:44 33.936492 -118.382818 358 96ft 0kts
21-May-20 11:45 33.936492 -118.382818 358 96ft 0kts
21-May-20 11:46 33.936679 -118.382841 354 96ft 7kts
21-May-20 11:47 33.935566 -118.399003 262 394ft 90kts
21-May-20 11:48 33.930683 -118.434043 261 927ft 115kts
21-May-20 11:49 33.908796 -118.460612 213 1424ft 119kts
21-May-20 11:50 33.880635 -118.480665 213 1986ft 117kts
21-May-20 11:51 33.852648 -118.500239 213 2519ft 116kts
21-May-20 11:52 33.824426 -118.519417 201 3030ft 118kts
21-May-20 11:53 33.813234 -118.492415 69 3509ft 115kts
21-May-20 11:54 33.817286 -118.454066 86 3985ft 117kts
21-May-20 11:55 33.815885 -118.413196 91 4008ft 122kts
21-May-20 11:56 33.812602 -118.372420 93 4008ft 122kts
21-May-20 11:57 33.808904 -118.331677 93 4008ft 122kts
21-May-20 11:58 33.805185 -118.291010 93 4007ft 122kts
21-May-20 11:59 33.801450 -118.250318 93 4005ft 122kts
21-May-20 12:00 33.797700 -118.209622 93 4003ft 122kts
21-May-20 12:01 33.793932 -118.168863 93 4001ft 122kts
21-May-20 12:02 33.790133 -118.128155 94 4000ft 122kts
21-May-20 12:03 33.786366 -118.087499 93 3998ft 122kts
21-May-20 12:04 33.787228 -118.047315 65 3997ft 120kts
21-May-20 12:05 33.801194 -118.010442 61 3988ft 121kts
21-May-20 12:07 33.815880 -117.973881 61 3987ft 121kts
21-May-20 12:08 33.830466 -117.937601 61 3986ft 120kts
21-May-20 12:09 33.845008 -117.901392 61 3985ft 119kts
21-May-20 12:10 33.859395 -117.865529 61 3984ft 118kts
21-May-20 12:11 33.873649 -117.829963 62 3984ft 118kts
21-May-20 12:12 33.887904 -117.794352 62 3984ft 118kts
21-May-20 12:13 33.902180 -117.758655 62 3984ft 118kts
21-May-20 12:14 33.916046 -117.722627 63 3985ft 119kts
21-May-20 12:15 33.941645 -117.699514 28 3987ft 117kts
21-May-20 12:16 33.968212 -117.697697 287 3987ft 114kts
21-May-20 12:17 33.944761 -117.716018 164 3989ft 124kts
21-May-20 12:18 33.912247 -117.718075 206 3986ft 122kts
21-May-20 12:19 33.880909 -117.737120 213 3753ft 133kts
21-May-20 12:20 33.851672 -117.756996 210 3390ft 121kts
21-May-20 12:21 33.821862 -117.776065 210 3121ft 115kts
21-May-20 12:21 33.799372 -117.790388 210 2638ft 105kts
21-May-20 12:23 33.771619 -117.808285 208 2190ft 90kts
21-May-20 12:24 33.751445 -117.821799 207 1915ft 68kts
21-May-20 12:24 33.738099 -117.829621 206 1573ft 64kts
21-May-20 12:26 33.719505 -117.841100 209 1127ft 66kts
21-May-20 12:26 33.705651 -117.849877 209 771ft 72kts
21-May-20 12:27 33.688383 -117.860757 209 274ft 66kts
21-May-20 12:28 33.677971 -117.868016 283 60ft 12kts
21-May-20 12:29 33.678073 -117.868591 258 60ft 3kts
21-May-20 12:30 33.676400 -117.870871 295 60ft 7kts
21-May-20 12:31 33.676316 -117.871070 208 60ft 0kts

Navigation Log

Ident Type
Flight plan parsing failed, navigation log unavailable